sensor_id;sensor_type;location;lat;lon;timestamp;temperature;humidity
37972;DHT22;23794;48.234;8.344;2022-11-02T00:01:20;9.10;99.90
37972;DHT22;23794;48.234;8.344;2022-11-02T00:03:49;8.90;99.90
37972;DHT22;23794;48.234;8.344;2022-11-02T00:06:16;8.90;99.90
37972;DHT22;23794;48.234;8.344;2022-11-02T00:08:43;9.00;99.90
37972;DHT22;23794;48.234;8.344;2022-11-02T00:11:10;8.90;99.90
37972;DHT22;23794;48.234;8.344;2022-11-02T00:13:37;9.00;99.90
37972;DHT22;23794;48.234;8.344;2022-11-02T00:16:05;8.90;99.90
37972;DHT22;23794;48.234;8.344;2022-11-02T00:18:34;8.90;99.90
37972;DHT22;23794;48.234;8.344;2022-11-02T00:21:02;8.90;99.90
37972;DHT22;23794;48.234;8.344;2022-11-02T00:23:30;8.90;99.90
37972;DHT22;23794;48.234;8.344;2022-11-02T00:25:57;8.90;99.90
37972;DHT22;23794;48.234;8.344;2022-11-02T00:28:29;9.00;99.90
37972;DHT22;23794;48.234;8.344;2022-11-02T00:30:56;9.10;99.90
37972;DHT22;23794;48.234;8.344;2022-11-02T00:33:25;9.10;99.90
37972;DHT22;23794;48.234;8.344;2022-11-02T00:35:53;9.10;99.90
37972;DHT22;23794;48.234;8.344;2022-11-02T00:38:20;9.10;99.90
37972;DHT22;23794;48.234;8.344;2022-11-02T00:40:46;9.10;99.90
37972;DHT22;23794;48.234;8.344;2022-11-02T00:43:13;9.20;99.90
37972;DHT22;23794;48.234;8.344;2022-11-02T00:45:40;9.20;99.90
37972;DHT22;23794;48.234;8.344;2022-11-02T00:48:08;9.20;99.90
37972;DHT22;23794;48.234;8.344;2022-11-02T00:50:35;9.30;99.90
37972;DHT22;23794;48.234;8.344;2022-11-02T00:53:02;9.20;99.90
37972;DHT22;23794;48.234;8.344;2022-11-02T00:55:29;9.20;99.90
37972;DHT22;23794;48.234;8.344;2022-11-02T00:58:00;9.30;99.90
37972;DHT22;23794;48.234;8.344;2022-11-02T01:00:28;9.30;99.90
37972;DHT22;23794;48.234;8.344;2022-11-02T01:02:59;9.30;99.90
37972;DHT22;23794;48.234;8.344;2022-11-02T01:05:26;9.30;99.90
37972;DHT22;23794;48.234;8.344;2022-11-02T01:07:53;9.30;99.90
37972;DHT22;23794;48.234;8.344;2022-11-02T01:10:19;9.30;99.90
37972;DHT22;23794;48.234;8.344;2022-11-02T01:12:46;9.30;99.90
37972;DHT22;23794;48.234;8.344;2022-11-02T01:15:13;9.30;99.90
37972;DHT22;23794;48.234;8.344;2022-11-02T01:17:40;9.20;99.90
37972;DHT22;23794;48.234;8.344;2022-11-02T01:20:07;9.20;99.90
37972;DHT22;23794;48.234;8.344;2022-11-02T01:22:34;9.10;99.90
37972;DHT22;23794;48.234;8.344;2022-11-02T01:25:01;9.10;99.90
37972;DHT22;23794;48.234;8.344;2022-11-02T01:27:29;9.20;99.90
37972;DHT22;23794;48.234;8.344;2022-11-02T01:29:55;9.10;99.90
37972;DHT22;23794;48.234;8.344;2022-11-02T01:32:22;9.10;99.90
37972;DHT22;23794;48.234;8.344;2022-11-02T01:34:49;9.00;99.90
37972;DHT22;23794;48.234;8.344;2022-11-02T01:37:16;9.00;99.90
37972;DHT22;23794;48.234;8.344;2022-11-02T01:39:42;8.90;99.90
37972;DHT22;23794;48.234;8.344;2022-11-02T01:42:21;8.80;99.90
37972;DHT22;23794;48.234;8.344;2022-11-02T01:44:48;8.80;99.90
37972;DHT22;23794;48.234;8.344;2022-11-02T01:47:35;8.80;99.90
37972;DHT22;23794;48.234;8.344;2022-11-02T01:50:24;8.70;99.90
37972;DHT22;23794;48.234;8.344;2022-11-02T01:52:53;8.60;99.90
37972;DHT22;23794;48.234;8.344;2022-11-02T01:55:28;8.70;99.90
37972;DHT22;23794;48.234;8.344;2022-11-02T01:58:02;8.60;99.90
37972;DHT22;23794;48.234;8.344;2022-11-02T02:00:31;8.60;99.90
37972;DHT22;23794;48.234;8.344;2022-11-02T02:03:06;8.60;99.90
37972;DHT22;23794;48.234;8.344;2022-11-02T02:05:37;8.70;99.90
37972;DHT22;23794;48.234;8.344;2022-11-02T02:08:06;8.60;99.90
37972;DHT22;23794;48.234;8.344;2022-11-02T02:10:35;8.60;99.90
37972;DHT22;23794;48.234;8.344;2022-11-02T02:13:05;8.60;99.90
37972;DHT22;23794;48.234;8.344;2022-11-02T02:18:37;8.40;99.90
37972;DHT22;23794;48.234;8.344;2022-11-02T02:23:54;8.50;99.90
37972;DHT22;23794;48.234;8.344;2022-11-02T02:26:41;8.50;99.90
37972;DHT22;23794;48.234;8.344;2022-11-02T02:29:28;8.60;99.90
37972;DHT22;23794;48.234;8.344;2022-11-02T02:34:46;8.60;99.90
37972;DHT22;23794;48.234;8.344;2022-11-02T02:37:24;8.60;99.90
37972;DHT22;23794;48.234;8.344;2022-11-02T02:40:00;8.50;99.90
37972;DHT22;23794;48.234;8.344;2022-11-02T02:42:41;8.50;99.90
37972;DHT22;23794;48.234;8.344;2022-11-02T02:47:49;8.50;99.90
37972;DHT22;23794;48.234;8.344;2022-11-02T02:50:27;8.30;99.90
37972;DHT22;23794;48.234;8.344;2022-11-02T02:52:56;8.20;99.90
37972;DHT22;23794;48.234;8.344;2022-11-02T02:55:28;8.30;99.90
37972;DHT22;23794;48.234;8.344;2022-11-02T02:57:59;8.30;99.90
37972;DHT22;23794;48.234;8.344;2022-11-02T03:00:29;8.30;99.90
37972;DHT22;23794;48.234;8.344;2022-11-02T03:02:57;8.30;99.90
37972;DHT22;23794;48.234;8.344;2022-11-02T03:05:33;8.20;99.90
37972;DHT22;23794;48.234;8.344;2022-11-02T03:08:14;8.20;99.90
37972;DHT22;23794;48.234;8.344;2022-11-02T03:11:04;8.30;99.90
37972;DHT22;23794;48.234;8.344;2022-11-02T03:16:30;8.00;99.90
37972;DHT22;23794;48.234;8.344;2022-11-02T03:19:14;7.90;99.90
37972;DHT22;23794;48.234;8.344;2022-11-02T03:21:44;8.00;99.90
37972;DHT22;23794;48.234;8.344;2022-11-02T03:24:25;8.20;99.90
37972;DHT22;23794;48.234;8.344;2022-11-02T03:27:14;8.10;99.90
37972;DHT22;23794;48.234;8.344;2022-11-02T03:32:26;8.00;99.90
37972;DHT22;23794;48.234;8.344;2022-11-02T03:34:57;7.90;99.90
37972;DHT22;23794;48.234;8.344;2022-11-02T03:40:30;7.90;99.90
37972;DHT22;23794;48.234;8.344;2022-11-02T03:42:57;7.80;99.90
37972;DHT22;23794;48.234;8.344;2022-11-02T03:45:28;7.80;99.90
37972;DHT22;23794;48.234;8.344;2022-11-02T03:48:02;7.70;99.90
37972;DHT22;23794;48.234;8.344;2022-11-02T03:50:32;7.80;99.90
37972;DHT22;23794;48.234;8.344;2022-11-02T03:53:11;7.80;99.90
37972;DHT22;23794;48.234;8.344;2022-11-02T03:55:46;7.70;99.90
37972;DHT22;23794;48.234;8.344;2022-11-02T03:58:14;7.70;99.90
37972;DHT22;23794;48.234;8.344;2022-11-02T04:00:55;7.80;99.90
37972;DHT22;23794;48.234;8.344;2022-11-02T04:03:23;7.70;99.90
37972;DHT22;23794;48.234;8.344;2022-11-02T04:05:52;7.80;99.90
37972;DHT22;23794;48.234;8.344;2022-11-02T04:08:33;7.90;99.90
37972;DHT22;23794;48.234;8.344;2022-11-02T04:11:05;7.90;99.90
37972;DHT22;23794;48.234;8.344;2022-11-02T04:13:52;8.00;99.90
37972;DHT22;23794;48.234;8.344;2022-11-02T04:16:41;7.90;99.90
37972;DHT22;23794;48.234;8.344;2022-11-02T04:19:24;8.00;99.90
37972;DHT22;23794;48.234;8.344;2022-11-02T04:22:00;8.00;99.90
37972;DHT22;23794;48.234;8.344;2022-11-02T04:24:49;8.00;99.90
37972;DHT22;23794;48.234;8.344;2022-11-02T04:27:35;8.00;99.90
37972;DHT22;23794;48.234;8.344;2022-11-02T04:30:03;8.10;99.90
37972;DHT22;23794;48.234;8.344;2022-11-02T04:32:39;8.10;99.90
37972;DHT22;23794;48.234;8.344;2022-11-02T04:35:29;8.10;99.90
37972;DHT22;23794;48.234;8.344;2022-11-02T04:37:57;8.20;99.90
37972;DHT22;23794;48.234;8.344;2022-11-02T04:40:44;8.20;99.90
37972;DHT22;23794;48.234;8.344;2022-11-02T04:43:10;8.20;99.90
37972;DHT22;23794;48.234;8.344;2022-11-02T04:45:40;8.30;99.90
37972;DHT22;23794;48.234;8.344;2022-11-02T04:48:08;8.30;99.90
37972;DHT22;23794;48.234;8.344;2022-11-02T04:50:35;8.40;99.90
37972;DHT22;23794;48.234;8.344;2022-11-02T04:53:04;8.40;99.90
37972;DHT22;23794;48.234;8.344;2022-11-02T04:55:34;8.40;99.90
37972;DHT22;23794;48.234;8.344;2022-11-02T04:58:01;8.40;99.90
37972;DHT22;23794;48.234;8.344;2022-11-02T05:00:28;8.40;99.90
37972;DHT22;23794;48.234;8.344;2022-11-02T05:02:56;8.30;99.90
37972;DHT22;23794;48.234;8.344;2022-11-02T05:05:24;8.30;99.90
37972;DHT22;23794;48.234;8.344;2022-11-02T05:07:54;8.40;99.90
37972;DHT22;23794;48.234;8.344;2022-11-02T05:10:21;8.40;99.90
37972;DHT22;23794;48.234;8.344;2022-11-02T05:12:56;8.40;99.90
37972;DHT22;23794;48.234;8.344;2022-11-02T05:15:25;8.40;99.90
37972;DHT22;23794;48.234;8.344;2022-11-02T05:17:52;8.40;99.90
37972;DHT22;23794;48.234;8.344;2022-11-02T05:20:19;8.60;99.90
37972;DHT22;23794;48.234;8.344;2022-11-02T05:22:46;8.50;99.90
37972;DHT22;23794;48.234;8.344;2022-11-02T05:25:15;8.50;99.90
37972;DHT22;23794;48.234;8.344;2022-11-02T05:27:42;8.40;99.90
37972;DHT22;23794;48.234;8.344;2022-11-02T05:30:09;8.50;99.90
37972;DHT22;23794;48.234;8.344;2022-11-02T05:32:36;8.50;99.90
37972;DHT22;23794;48.234;8.344;2022-11-02T05:35:04;8.50;99.90
37972;DHT22;23794;48.234;8.344;2022-11-02T05:37:32;8.50;99.90
37972;DHT22;23794;48.234;8.344;2022-11-02T05:39:58;8.60;99.90
37972;DHT22;23794;48.234;8.344;2022-11-02T05:42:25;8.60;99.90
37972;DHT22;23794;48.234;8.344;2022-11-02T05:44:52;8.50;99.90
37972;DHT22;23794;48.234;8.344;2022-11-02T05:47:19;8.60;99.90
37972;DHT22;23794;48.234;8.344;2022-11-02T05:49:46;8.60;99.90
37972;DHT22;23794;48.234;8.344;2022-11-02T05:52:12;8.60;99.90
37972;DHT22;23794;48.234;8.344;2022-11-02T05:54:39;8.60;99.90
37972;DHT22;23794;48.234;8.344;2022-11-02T05:57:06;8.50;99.90
37972;DHT22;23794;48.234;8.344;2022-11-02T05:59:32;8.60;99.90
37972;DHT22;23794;48.234;8.344;2022-11-02T06:01:59;8.60;99.90
37972;DHT22;23794;48.234;8.344;2022-11-02T06:04:26;8.50;99.90
37972;DHT22;23794;48.234;8.344;2022-11-02T06:06:53;8.60;99.90
37972;DHT22;23794;48.234;8.344;2022-11-02T06:09:20;8.60;99.90
37972;DHT22;23794;48.234;8.344;2022-11-02T06:11:47;8.60;99.90
37972;DHT22;23794;48.234;8.344;2022-11-02T06:14:14;8.60;99.90
37972;DHT22;23794;48.234;8.344;2022-11-02T06:16:40;8.60;99.90
37972;DHT22;23794;48.234;8.344;2022-11-02T06:19:07;8.70;99.90
37972;DHT22;23794;48.234;8.344;2022-11-02T06:21:34;8.60;99.90
37972;DHT22;23794;48.234;8.344;2022-11-02T06:24:02;8.60;99.90
37972;DHT22;23794;48.234;8.344;2022-11-02T06:26:28;8.70;99.90
37972;DHT22;23794;48.234;8.344;2022-11-02T06:28:55;8.70;99.90
37972;DHT22;23794;48.234;8.344;2022-11-02T06:31:22;8.70;99.90
37972;DHT22;23794;48.234;8.344;2022-11-02T06:33:49;8.70;99.90
37972;DHT22;23794;48.234;8.344;2022-11-02T06:36:15;8.80;99.90
37972;DHT22;23794;48.234;8.344;2022-11-02T06:38:42;9.00;99.90
37972;DHT22;23794;48.234;8.344;2022-11-02T06:41:11;8.90;99.90
37972;DHT22;23794;48.234;8.344;2022-11-02T06:43:38;9.00;99.90
37972;DHT22;23794;48.234;8.344;2022-11-02T06:46:06;9.00;99.90
37972;DHT22;23794;48.234;8.344;2022-11-02T06:48:33;8.90;99.90
37972;DHT22;23794;48.234;8.344;2022-11-02T06:51:02;9.10;99.90
37972;DHT22;23794;48.234;8.344;2022-11-02T06:53:30;9.10;99.90
37972;DHT22;23794;48.234;8.344;2022-11-02T06:55:59;9.20;99.90
37972;DHT22;23794;48.234;8.344;2022-11-02T06:58:26;9.30;99.90
37972;DHT22;23794;48.234;8.344;2022-11-02T07:00:58;9.40;99.90
37972;DHT22;23794;48.234;8.344;2022-11-02T07:03:26;9.50;99.90
37972;DHT22;23794;48.234;8.344;2022-11-02T07:05:53;9.50;99.90
37972;DHT22;23794;48.234;8.344;2022-11-02T07:08:20;9.70;99.90
37972;DHT22;23794;48.234;8.344;2022-11-02T07:10:47;9.80;99.90
37972;DHT22;23794;48.234;8.344;2022-11-02T07:13:14;9.90;99.90
37972;DHT22;23794;48.234;8.344;2022-11-02T07:15:42;10.10;99.90
37972;DHT22;23794;48.234;8.344;2022-11-02T07:18:09;10.20;99.90
37972;DHT22;23794;48.234;8.344;2022-11-02T07:20:40;10.30;99.90
37972;DHT22;23794;48.234;8.344;2022-11-02T07:23:09;10.30;99.90
37972;DHT22;23794;48.234;8.344;2022-11-02T07:25:50;10.40;99.90
37972;DHT22;23794;48.234;8.344;2022-11-02T07:28:24;10.50;99.90
37972;DHT22;23794;48.234;8.344;2022-11-02T07:30:53;10.60;99.90
37972;DHT22;23794;48.234;8.344;2022-11-02T07:33:22;10.70;99.90
37972;DHT22;23794;48.234;8.344;2022-11-02T07:35:49;10.80;99.90
37972;DHT22;23794;48.234;8.344;2022-11-02T07:38:15;10.90;99.90
37972;DHT22;23794;48.234;8.344;2022-11-02T07:40:42;11.00;99.90
37972;DHT22;23794;48.234;8.344;2022-11-02T07:43:09;11.10;99.90
37972;DHT22;23794;48.234;8.344;2022-11-02T07:45:52;11.20;99.90
37972;DHT22;23794;48.234;8.344;2022-11-02T07:48:19;11.20;99.90
37972;DHT22;23794;48.234;8.344;2022-11-02T07:50:45;11.10;99.90
37972;DHT22;23794;48.234;8.344;2022-11-02T07:53:12;11.10;99.90
37972;DHT22;23794;48.234;8.344;2022-11-02T07:55:40;11.10;99.90
37972;DHT22;23794;48.234;8.344;2022-11-02T07:58:10;11.30;99.90
37972;DHT22;23794;48.234;8.344;2022-11-02T08:00:41;11.50;99.90
37972;DHT22;23794;48.234;8.344;2022-11-02T08:03:09;11.60;99.90
37972;DHT22;23794;48.234;8.344;2022-11-02T08:05:38;11.80;99.90
37972;DHT22;23794;48.234;8.344;2022-11-02T08:08:12;12.00;99.90
37972;DHT22;23794;48.234;8.344;2022-11-02T08:10:40;12.20;99.90
37972;DHT22;23794;48.234;8.344;2022-11-02T08:13:09;12.20;99.90
37972;DHT22;23794;48.234;8.344;2022-11-02T08:15:36;12.30;99.90
37972;DHT22;23794;48.234;8.344;2022-11-02T08:18:08;12.30;99.90
37972;DHT22;23794;48.234;8.344;2022-11-02T08:20:37;12.30;99.90
37972;DHT22;23794;48.234;8.344;2022-11-02T08:23:05;12.20;99.90
37972;DHT22;23794;48.234;8.344;2022-11-02T08:25:33;12.20;99.90
37972;DHT22;23794;48.234;8.344;2022-11-02T08:28:00;12.10;99.90
37972;DHT22;23794;48.234;8.344;2022-11-02T08:30:29;12.10;99.90
37972;DHT22;23794;48.234;8.344;2022-11-02T08:33:04;12.10;99.90
37972;DHT22;23794;48.234;8.344;2022-11-02T08:35:32;12.00;99.90
37972;DHT22;23794;48.234;8.344;2022-11-02T08:38:00;12.00;99.90
37972;DHT22;23794;48.234;8.344;2022-11-02T08:40:27;12.00;99.90
37972;DHT22;23794;48.234;8.344;2022-11-02T08:43:13;12.10;99.90
37972;DHT22;23794;48.234;8.344;2022-11-02T08:45:43;12.20;99.90
37972;DHT22;23794;48.234;8.344;2022-11-02T08:48:30;12.30;99.90
37972;DHT22;23794;48.234;8.344;2022-11-02T08:50:57;12.30;99.90
37972;DHT22;23794;48.234;8.344;2022-11-02T08:53:24;12.40;99.90
37972;DHT22;23794;48.234;8.344;2022-11-02T08:55:51;12.50;99.90
37972;DHT22;23794;48.234;8.344;2022-11-02T08:58:18;12.70;99.90
37972;DHT22;23794;48.234;8.344;2022-11-02T09:00:45;13.00;99.90
37972;DHT22;23794;48.234;8.344;2022-11-02T09:03:14;13.20;99.90
37972;DHT22;23794;48.234;8.344;2022-11-02T09:05:45;13.00;99.90
37972;DHT22;23794;48.234;8.344;2022-11-02T09:08:15;13.20;99.90
37972;DHT22;23794;48.234;8.344;2022-11-02T09:10:44;13.20;99.90
37972;DHT22;23794;48.234;8.344;2022-11-02T09:13:13;13.20;99.90
37972;DHT22;23794;48.234;8.344;2022-11-02T09:15:41;13.30;99.90
37972;DHT22;23794;48.234;8.344;2022-11-02T09:18:07;13.40;99.90
37972;DHT22;23794;48.234;8.344;2022-11-02T09:20:35;13.50;99.90
37972;DHT22;23794;48.234;8.344;2022-11-02T09:23:02;13.40;99.90
37972;DHT22;23794;48.234;8.344;2022-11-02T09:25:29;13.40;99.90
37972;DHT22;23794;48.234;8.344;2022-11-02T09:27:56;13.30;99.90
37972;DHT22;23794;48.234;8.344;2022-11-02T09:30:24;13.40;99.90
37972;DHT22;23794;48.234;8.344;2022-11-02T09:33:02;13.50;99.90
37972;DHT22;23794;48.234;8.344;2022-11-02T09:35:34;13.60;99.90
37972;DHT22;23794;48.234;8.344;2022-11-02T09:38:01;13.50;99.90
37972;DHT22;23794;48.234;8.344;2022-11-02T09:40:44;13.40;99.90
37972;DHT22;23794;48.234;8.344;2022-11-02T09:43:35;13.50;99.90
37972;DHT22;23794;48.234;8.344;2022-11-02T09:46:20;13.50;99.90
37972;DHT22;23794;48.234;8.344;2022-11-02T09:48:56;13.50;99.90
37972;DHT22;23794;48.234;8.344;2022-11-02T09:51:34;13.50;99.90
37972;DHT22;23794;48.234;8.344;2022-11-02T09:56:55;13.40;99.90
37972;DHT22;23794;48.234;8.344;2022-11-02T09:59:24;13.30;99.90
37972;DHT22;23794;48.234;8.344;2022-11-02T10:02:02;13.40;99.90
37972;DHT22;23794;48.234;8.344;2022-11-02T10:04:59;13.50;99.90
37972;DHT22;23794;48.234;8.344;2022-11-02T10:15:47;13.40;99.90
37972;DHT22;23794;48.234;8.344;2022-11-02T10:18:19;13.30;99.90
37972;DHT22;23794;48.234;8.344;2022-11-02T10:20:50;13.50;99.90
37972;DHT22;23794;48.234;8.344;2022-11-02T10:23:31;13.50;99.90
37972;DHT22;23794;48.234;8.344;2022-11-02T10:26:00;13.60;99.90
37972;DHT22;23794;48.234;8.344;2022-11-02T10:28:34;13.60;99.90
37972;DHT22;23794;48.234;8.344;2022-11-02T10:31:02;13.60;99.90
37972;DHT22;23794;48.234;8.344;2022-11-02T10:33:30;13.70;99.90
37972;DHT22;23794;48.234;8.344;2022-11-02T10:36:08;13.70;99.90
37972;DHT22;23794;48.234;8.344;2022-11-02T10:52:35;13.70;99.90
37972;DHT22;23794;48.234;8.344;2022-11-02T10:55:18;13.70;99.90
37972;DHT22;23794;48.234;8.344;2022-11-02T10:57:46;13.80;99.90
37972;DHT22;23794;48.234;8.344;2022-11-02T11:00:28;13.70;99.90
37972;DHT22;23794;48.234;8.344;2022-11-02T11:03:15;13.70;99.90
37972;DHT22;23794;48.234;8.344;2022-11-02T11:08:28;13.80;99.90
37972;DHT22;23794;48.234;8.344;2022-11-02T11:13:35;13.90;99.90
37972;DHT22;23794;48.234;8.344;2022-11-02T11:18:58;14.20;99.90
37972;DHT22;23794;48.234;8.344;2022-11-02T11:21:45;14.50;99.90
37972;DHT22;23794;48.234;8.344;2022-11-02T11:24:24;14.50;99.90
37972;DHT22;23794;48.234;8.344;2022-11-02T11:29:54;14.60;99.90
37972;DHT22;23794;48.234;8.344;2022-11-02T11:32:26;14.60;99.90
37972;DHT22;23794;48.234;8.344;2022-11-02T11:35:01;14.60;99.90
37972;DHT22;23794;48.234;8.344;2022-11-02T11:37:29;14.50;99.90
37972;DHT22;23794;48.234;8.344;2022-11-02T11:40:19;14.70;99.90
37972;DHT22;23794;48.234;8.344;2022-11-02T11:42:52;15.10;99.90
37972;DHT22;23794;48.234;8.344;2022-11-02T11:45:29;15.30;99.90
37972;DHT22;23794;48.234;8.344;2022-11-02T11:48:16;15.40;99.90
37972;DHT22;23794;48.234;8.344;2022-11-02T11:50:47;15.40;99.90
37972;DHT22;23794;48.234;8.344;2022-11-02T11:53:25;15.50;99.90
37972;DHT22;23794;48.234;8.344;2022-11-02T11:55:57;15.60;99.90
37972;DHT22;23794;48.234;8.344;2022-11-02T12:03:53;15.90;99.90
37972;DHT22;23794;48.234;8.344;2022-11-02T12:09:35;15.90;99.90
37972;DHT22;23794;48.234;8.344;2022-11-02T12:12:25;15.90;99.90
37972;DHT22;23794;48.234;8.344;2022-11-02T12:15:18;15.90;99.90
37972;DHT22;23794;48.234;8.344;2022-11-02T12:21:00;15.70;99.90
37972;DHT22;23794;48.234;8.344;2022-11-02T12:23:49;15.70;99.90
37972;DHT22;23794;48.234;8.344;2022-11-02T12:26:27;15.60;99.90
37972;DHT22;23794;48.234;8.344;2022-11-02T12:29:15;15.50;99.90
37972;DHT22;23794;48.234;8.344;2022-11-02T12:32:03;15.50;99.90
37972;DHT22;23794;48.234;8.344;2022-11-02T12:51:35;15.50;99.90
37972;DHT22;23794;48.234;8.344;2022-11-02T12:54:23;15.50;99.90
37972;DHT22;23794;48.234;8.344;2022-11-02T12:56:53;15.60;99.90
37972;DHT22;23794;48.234;8.344;2022-11-02T12:59:23;16.00;99.90
37972;DHT22;23794;48.234;8.344;2022-11-02T13:01:55;16.10;99.90
37972;DHT22;23794;48.234;8.344;2022-11-02T13:04:31;16.30;99.90
37972;DHT22;23794;48.234;8.344;2022-11-02T13:07:07;16.30;99.90
37972;DHT22;23794;48.234;8.344;2022-11-02T13:09:43;16.40;99.90
37972;DHT22;23794;48.234;8.344;2022-11-02T13:12:19;16.50;99.90
37972;DHT22;23794;48.234;8.344;2022-11-02T13:14:51;16.70;99.90
37972;DHT22;23794;48.234;8.344;2022-11-02T13:22:41;16.60;99.90
37972;DHT22;23794;48.234;8.344;2022-11-02T13:25:16;16.70;99.90
37972;DHT22;23794;48.234;8.344;2022-11-02T13:27:53;16.60;99.90
37972;DHT22;23794;48.234;8.344;2022-11-02T13:30:20;16.50;99.90
37972;DHT22;23794;48.234;8.344;2022-11-02T13:32:58;16.40;99.90
37972;DHT22;23794;48.234;8.344;2022-11-02T13:35:34;16.10;99.90
37972;DHT22;23794;48.234;8.344;2022-11-02T13:51:42;16.00;99.90
37972;DHT22;23794;48.234;8.344;2022-11-02T13:54:30;15.90;99.90
37972;DHT22;23794;48.234;8.344;2022-11-02T13:56:59;15.80;99.90
37972;DHT22;23794;48.234;8.344;2022-11-02T13:59:34;15.70;99.90
37972;DHT22;23794;48.234;8.344;2022-11-02T14:02:13;15.80;99.90
37972;DHT22;23794;48.234;8.344;2022-11-02T14:04:43;15.80;99.90
37972;DHT22;23794;48.234;8.344;2022-11-02T14:07:39;15.60;99.90
37972;DHT22;23794;48.234;8.344;2022-11-02T14:10:14;15.40;99.90
37972;DHT22;23794;48.234;8.344;2022-11-02T14:12:42;15.10;99.90
37972;DHT22;23794;48.234;8.344;2022-11-02T14:25:48;14.60;99.90
37972;DHT22;23794;48.234;8.344;2022-11-02T14:42:15;13.60;99.90
37972;DHT22;23794;48.234;8.344;2022-11-02T14:44:55;13.60;99.90
37972;DHT22;23794;48.234;8.344;2022-11-02T14:47:30;13.50;99.90
37972;DHT22;23794;48.234;8.344;2022-11-02T14:50:13;13.50;99.90
37972;DHT22;23794;48.234;8.344;2022-11-02T14:53:00;13.30;99.90
37972;DHT22;23794;48.234;8.344;2022-11-02T14:55:32;13.10;99.90
37972;DHT22;23794;48.234;8.344;2022-11-02T14:58:04;13.00;99.90
37972;DHT22;23794;48.234;8.344;2022-11-02T15:00:57;12.70;99.90
37972;DHT22;23794;48.234;8.344;2022-11-02T15:08:50;12.40;99.90
37972;DHT22;23794;48.234;8.344;2022-11-02T15:11:43;12.30;99.90
37972;DHT22;23794;48.234;8.344;2022-11-02T15:19:45;12.20;99.90
37972;DHT22;23794;48.234;8.344;2022-11-02T15:24:59;12.10;99.90
37972;DHT22;23794;48.234;8.344;2022-11-02T15:27:27;12.10;99.90
37972;DHT22;23794;48.234;8.344;2022-11-02T15:29:56;12.00;99.90
37972;DHT22;23794;48.234;8.344;2022-11-02T15:32:25;12.00;99.90
37972;DHT22;23794;48.234;8.344;2022-11-02T15:34:54;11.90;99.90
37972;DHT22;23794;48.234;8.344;2022-11-02T15:37:25;11.70;99.90
37972;DHT22;23794;48.234;8.344;2022-11-02T15:40:41;11.70;99.90
37972;DHT22;23794;48.234;8.344;2022-11-02T15:49:14;11.60;99.90
37972;DHT22;23794;48.234;8.344;2022-11-02T15:52:06;11.50;99.90
37972;DHT22;23794;48.234;8.344;2022-11-02T15:54:59;11.40;99.90
37972;DHT22;23794;48.234;8.344;2022-11-02T16:00:19;11.20;99.90
37972;DHT22;23794;48.234;8.344;2022-11-02T16:02:51;11.20;99.90
37972;DHT22;23794;48.234;8.344;2022-11-02T16:05:23;11.10;99.90
37972;DHT22;23794;48.234;8.344;2022-11-02T16:07:53;11.00;99.90
37972;DHT22;23794;48.234;8.344;2022-11-02T16:10:37;10.90;99.90
37972;DHT22;23794;48.234;8.344;2022-11-02T16:13:12;10.70;99.90
37972;DHT22;23794;48.234;8.344;2022-11-02T16:15:42;10.70;99.90
37972;DHT22;23794;48.234;8.344;2022-11-02T16:18:27;10.60;99.90
37972;DHT22;23794;48.234;8.344;2022-11-02T16:20:59;10.60;99.90
37972;DHT22;23794;48.234;8.344;2022-11-02T16:23:29;10.50;99.90
37972;DHT22;23794;48.234;8.344;2022-11-02T16:25:59;10.30;99.90
37972;DHT22;23794;48.234;8.344;2022-11-02T16:28:31;10.10;99.90
37972;DHT22;23794;48.234;8.344;2022-11-02T16:33:39;10.00;99.90
37972;DHT22;23794;48.234;8.344;2022-11-02T16:36:08;10.10;99.90
37972;DHT22;23794;48.234;8.344;2022-11-02T16:38:37;10.00;99.90
37972;DHT22;23794;48.234;8.344;2022-11-02T16:41:08;9.90;99.90
37972;DHT22;23794;48.234;8.344;2022-11-02T16:43:35;9.70;99.90
37972;DHT22;23794;48.234;8.344;2022-11-02T16:46:05;9.60;99.90
37972;DHT22;23794;48.234;8.344;2022-11-02T16:48:32;9.30;99.90
37972;DHT22;23794;48.234;8.344;2022-11-02T16:51:13;9.30;99.90
37972;DHT22;23794;48.234;8.344;2022-11-02T16:53:42;9.40;99.90
37972;DHT22;23794;48.234;8.344;2022-11-02T16:56:13;9.50;99.90
37972;DHT22;23794;48.234;8.344;2022-11-02T16:58:47;9.50;99.90
37972;DHT22;23794;48.234;8.344;2022-11-02T17:01:22;9.30;99.90
37972;DHT22;23794;48.234;8.344;2022-11-02T17:03:50;9.40;99.90
37972;DHT22;23794;48.234;8.344;2022-11-02T17:06:17;9.30;99.90
37972;DHT22;23794;48.234;8.344;2022-11-02T17:08:51;9.30;99.90
37972;DHT22;23794;48.234;8.344;2022-11-02T17:11:19;9.30;99.90
37972;DHT22;23794;48.234;8.344;2022-11-02T17:13:54;9.20;99.90
37972;DHT22;23794;48.234;8.344;2022-11-02T17:16:21;9.30;99.90
37972;DHT22;23794;48.234;8.344;2022-11-02T17:18:48;9.30;99.90
37972;DHT22;23794;48.234;8.344;2022-11-02T17:21:26;9.20;99.90
37972;DHT22;23794;48.234;8.344;2022-11-02T17:23:55;9.20;99.90
37972;DHT22;23794;48.234;8.344;2022-11-02T17:28:52;9.10;99.90
37972;DHT22;23794;48.234;8.344;2022-11-02T17:31:31;9.10;99.90
37972;DHT22;23794;48.234;8.344;2022-11-02T17:34:07;9.10;99.90
37972;DHT22;23794;48.234;8.344;2022-11-02T17:36:42;9.00;99.90
37972;DHT22;23794;48.234;8.344;2022-11-02T17:39:14;9.00;99.90
37972;DHT22;23794;48.234;8.344;2022-11-02T17:41:47;8.80;99.90
37972;DHT22;23794;48.234;8.344;2022-11-02T17:44:34;8.80;99.90
37972;DHT22;23794;48.234;8.344;2022-11-02T17:47:04;8.80;99.90
37972;DHT22;23794;48.234;8.344;2022-11-02T17:49:31;8.80;99.90
37972;DHT22;23794;48.234;8.344;2022-11-02T17:51:58;8.60;99.90
37972;DHT22;23794;48.234;8.344;2022-11-02T17:54:25;8.60;99.90
37972;DHT22;23794;48.234;8.344;2022-11-02T17:56:51;8.60;99.90
37972;DHT22;23794;48.234;8.344;2022-11-02T17:59:18;8.50;99.90
37972;DHT22;23794;48.234;8.344;2022-11-02T18:01:45;8.60;99.90
37972;DHT22;23794;48.234;8.344;2022-11-02T18:04:12;8.60;99.90
37972;DHT22;23794;48.234;8.344;2022-11-02T18:06:40;8.40;99.90
37972;DHT22;23794;48.234;8.344;2022-11-02T18:09:07;8.40;99.90
37972;DHT22;23794;48.234;8.344;2022-11-02T18:11:37;8.40;99.90
37972;DHT22;23794;48.234;8.344;2022-11-02T18:14:04;8.50;99.90
37972;DHT22;23794;48.234;8.344;2022-11-02T18:16:31;8.50;99.90
37972;DHT22;23794;48.234;8.344;2022-11-02T18:18:58;8.50;99.90
37972;DHT22;23794;48.234;8.344;2022-11-02T18:21:25;8.50;99.90
37972;DHT22;23794;48.234;8.344;2022-11-02T18:23:51;8.40;99.90
37972;DHT22;23794;48.234;8.344;2022-11-02T18:26:18;8.20;99.90
37972;DHT22;23794;48.234;8.344;2022-11-02T18:28:45;8.10;99.90
37972;DHT22;23794;48.234;8.344;2022-11-02T18:31:12;8.00;99.90
37972;DHT22;23794;48.234;8.344;2022-11-02T18:33:42;8.10;99.90
37972;DHT22;23794;48.234;8.344;2022-11-02T18:36:10;8.00;99.90
37972;DHT22;23794;48.234;8.344;2022-11-02T18:38:37;8.10;99.90
37972;DHT22;23794;48.234;8.344;2022-11-02T18:41:08;8.10;99.90
37972;DHT22;23794;48.234;8.344;2022-11-02T18:43:57;8.10;99.90
37972;DHT22;23794;48.234;8.344;2022-11-02T18:46:31;8.10;99.90